createdAt,value
2019-01-04T00:00:29.281Z,84.04
2019-01-04T00:03:00.129Z,84.03
2019-01-04T00:05:41.076Z,84.01
2019-01-04T00:08:20.455Z,83.95
2019-01-04T00:11:00.223Z,83.90
2019-01-04T00:13:39.405Z,83.90
2019-01-04T00:16:18.814Z,83.88
2019-01-04T00:18:57.737Z,83.85
2019-01-04T00:21:41.603Z,83.85
2019-01-04T00:24:21.480Z,83.82
2019-01-04T00:27:01.343Z,83.78
2019-01-04T00:29:41.141Z,83.75
2019-01-04T00:32:20.821Z,83.75
2019-01-04T00:35:00.780Z,83.72
2019-01-04T00:37:41.628Z,83.70
2019-01-04T00:40:22.792Z,83.69
2019-01-04T00:43:06.326Z,83.70
2019-01-04T00:45:45.686Z,83.69
2019-01-04T00:48:28.942Z,83.70
2019-01-04T00:51:12.020Z,83.65
2019-01-04T00:53:51.759Z,83.66
2019-01-04T00:57:35.761Z,83.67
2019-01-04T01:00:55.157Z,83.66
2019-01-04T01:04:39.608Z,83.73
2019-01-04T01:07:59.669Z,83.66
2019-01-04T01:11:58.460Z,83.63
2019-01-04T01:15:53.870Z,83.67
2019-01-04T01:19:22.890Z,83.67
2019-01-04T01:23:14.507Z,83.59
2019-01-04T01:26:38.168Z,83.51
2019-01-04T01:30:21.008Z,83.53
2019-01-04T01:33:29.266Z,83.50
2019-01-04T01:36:55.647Z,83.50
2019-01-04T01:40:19.432Z,83.44
2019-01-04T01:44:04.297Z,83.39
2019-01-04T01:46:49.645Z,83.37
2019-01-04T01:50:02.594Z,83.33
2019-01-04T01:52:41.915Z,83.26
2019-01-04T01:55:12.455Z,83.26
2019-01-04T01:57:42.889Z,83.21
2019-01-04T02:00:13.480Z,83.14
2019-01-04T02:02:43.856Z,83.13
2019-01-04T02:05:14.345Z,83.07
2019-01-04T02:07:44.885Z,82.99
2019-01-04T02:10:15.926Z,83.04
2019-01-04T02:12:46.696Z,83.07
2019-01-04T02:15:16.959Z,83.02
2019-01-04T02:17:47.344Z,83.00
2019-01-04T02:20:17.733Z,82.99
2019-01-04T02:22:48.011Z,82.94
2019-01-04T02:25:18.390Z,82.93
2019-01-04T02:27:48.831Z,82.95
2019-01-04T02:30:19.061Z,83.01
2019-01-04T02:32:49.413Z,83.02
2019-01-04T02:35:19.701Z,83.02
2019-01-04T02:37:50.103Z,82.97
2019-01-04T02:40:20.410Z,82.99
2019-01-04T02:42:50.780Z,82.92
2019-01-04T02:45:21.412Z,82.87
2019-01-04T02:47:52.005Z,82.84
2019-01-04T02:50:22.386Z,82.79
2019-01-04T02:52:52.658Z,82.81
2019-01-04T02:55:25.197Z,82.77
2019-01-04T02:57:56.689Z,82.74
2019-01-04T03:00:27.422Z,82.79
2019-01-04T03:02:57.781Z,82.75
2019-01-04T03:05:28.177Z,82.73
2019-01-04T03:07:58.543Z,82.75
2019-01-04T03:10:28.953Z,82.83
2019-01-04T03:12:59.352Z,82.97
2019-01-04T03:15:29.747Z,83.12
2019-01-04T03:18:00.044Z,83.23
2019-01-04T03:20:30.426Z,83.34
2019-01-04T03:23:00.821Z,83.39
2019-01-04T03:25:31.095Z,83.45
2019-01-04T03:28:01.417Z,83.58
2019-01-04T03:30:31.740Z,83.62
2019-01-04T03:33:02.104Z,83.69
2019-01-04T03:35:32.595Z,83.70
2019-01-04T03:38:02.905Z,83.69
2019-01-04T03:40:33.262Z,83.74
2019-01-04T03:43:03.566Z,83.81
2019-01-04T03:45:34.076Z,83.86
2019-01-04T03:48:04.559Z,83.91
2019-01-04T03:50:34.848Z,83.95
2019-01-04T03:53:05.176Z,84.01
2019-01-04T03:55:35.546Z,83.98
2019-01-04T03:58:07.130Z,84.04
2019-01-04T04:00:37.527Z,84.09
2019-01-04T04:03:07.865Z,84.09
2019-01-04T04:05:38.184Z,84.11
2019-01-04T04:08:08.575Z,84.13
2019-01-04T04:10:38.967Z,84.13
2019-01-04T04:13:09.614Z,84.13
2019-01-04T04:15:40.228Z,84.14
2019-01-04T04:18:10.680Z,84.15
2019-01-04T04:20:42.194Z,84.19
2019-01-04T04:23:15.203Z,84.27
2019-01-04T04:25:47.454Z,84.34
2019-01-04T04:28:17.772Z,84.36
2019-01-04T04:30:48.187Z,84.34
2019-01-04T04:33:18.715Z,84.43
2019-01-04T04:35:49.198Z,84.53
2019-01-04T04:38:19.813Z,84.60
2019-01-04T04:40:50.087Z,84.58
2019-01-04T04:43:20.402Z,84.58
2019-01-04T04:45:52.831Z,84.56
2019-01-04T04:48:23.410Z,84.58
2019-01-04T04:50:54.089Z,84.56
2019-01-04T04:53:24.559Z,84.57
2019-01-04T04:55:54.959Z,84.63
2019-01-04T04:58:25.222Z,84.66
2019-01-04T05:00:55.597Z,84.70
2019-01-04T05:03:25.901Z,84.73
2019-01-04T05:05:56.322Z,84.79
2019-01-04T05:08:26.693Z,84.81
2019-01-04T05:10:57.180Z,84.77
2019-01-04T05:13:27.595Z,84.81
2019-01-04T05:15:57.969Z,84.82
2019-01-04T05:18:28.345Z,84.82
2019-01-04T05:20:58.687Z,84.80
2019-01-04T05:23:28.968Z,84.84
2019-01-04T05:25:59.298Z,84.86
2019-01-04T05:28:29.696Z,84.85
2019-01-04T05:31:00.235Z,84.87
2019-01-04T05:33:30.613Z,84.89
2019-01-04T05:36:01.001Z,84.92
2019-01-04T05:38:31.325Z,84.92
2019-01-04T05:41:01.729Z,84.90
2019-01-04T05:43:32.060Z,84.89
2019-01-04T05:46:02.431Z,84.88
2019-01-04T05:48:32.739Z,84.89
2019-01-04T05:51:03.003Z,84.88
2019-01-04T05:53:33.346Z,84.85
2019-01-04T05:56:03.926Z,84.87
2019-01-04T05:58:34.497Z,84.86
2019-01-04T06:01:07.832Z,84.81
2019-01-04T06:03:38.427Z,84.77
2019-01-04T06:06:09.054Z,84.69
2019-01-04T06:08:39.688Z,84.65
2019-01-04T06:11:10.114Z,84.64
2019-01-04T06:13:40.673Z,84.58
2019-01-04T06:16:11.068Z,84.46
2019-01-04T06:18:41.552Z,84.43
2019-01-04T06:21:12.020Z,84.42
2019-01-04T06:23:42.511Z,84.42
2019-01-04T06:26:13.133Z,84.36
2019-01-04T06:28:43.780Z,84.31
2019-01-04T06:31:14.305Z,84.33
2019-01-04T06:33:45.008Z,84.30
2019-01-04T06:36:15.542Z,84.31
2019-01-04T06:38:46.055Z,84.36
2019-01-04T06:41:16.630Z,84.39
2019-01-04T06:43:47.156Z,84.41
2019-01-04T06:46:17.683Z,84.39
2019-01-04T06:48:49.242Z,84.44
2019-01-04T06:51:19.766Z,84.47
2019-01-04T06:53:50.131Z,84.49
2019-01-04T06:56:20.714Z,84.49
2019-01-04T06:58:51.215Z,84.50
2019-01-04T07:01:21.609Z,84.52
2019-01-04T07:03:53.527Z,84.51
2019-01-04T07:06:23.767Z,84.53
2019-01-04T07:08:54.091Z,84.54
2019-01-04T07:11:24.402Z,84.55
2019-01-04T07:13:54.758Z,84.53
2019-01-04T07:16:25.075Z,84.54
2019-01-04T07:18:55.476Z,84.55
2019-01-04T07:21:25.781Z,84.56
2019-01-04T07:23:56.228Z,84.59
2019-01-04T07:26:26.584Z,84.60
2019-01-04T07:28:56.859Z,84.62
2019-01-04T07:31:27.172Z,84.64
2019-01-04T07:33:57.432Z,84.74
2019-01-04T07:36:27.735Z,84.77
2019-01-04T07:38:58.016Z,84.76
2019-01-04T07:41:28.345Z,84.78
2019-01-04T07:43:58.487Z,84.79
2019-01-04T07:46:28.871Z,84.78
2019-01-04T07:48:59.181Z,84.78
2019-01-04T07:51:29.730Z,84.81
2019-01-04T07:54:00.046Z,84.81
2019-01-04T07:56:30.416Z,84.82
2019-01-04T07:59:00.741Z,84.84
2019-01-04T08:01:31.051Z,84.83
2019-01-04T08:04:01.331Z,84.84
2019-01-04T08:06:31.759Z,84.85
2019-01-04T08:09:02.039Z,84.87
2019-01-04T08:11:32.375Z,84.91
2019-01-04T08:14:07.131Z,84.93
2019-01-04T08:16:40.115Z,84.90
2019-01-04T08:20:41.186Z,84.87
2019-01-04T08:22:09.596Z,84.86
2019-01-04T08:24:39.947Z,84.84
2019-01-04T08:27:10.302Z,84.78
2019-01-04T08:29:40.720Z,84.76
2019-01-04T08:32:11.103Z,84.71
2019-01-04T08:34:41.399Z,84.67
2019-01-04T08:37:11.754Z,84.61
2019-01-04T08:39:42.072Z,84.56
2019-01-04T08:42:12.404Z,84.50
2019-01-04T08:44:42.904Z,84.51
2019-01-04T08:47:13.222Z,84.43
2019-01-04T08:49:45.890Z,84.31
2019-01-04T08:52:16.354Z,84.24
2019-01-04T08:54:46.677Z,84.16
2019-01-04T08:57:16.995Z,84.09
2019-01-04T08:59:47.235Z,83.99
2019-01-04T09:02:17.640Z,83.98
2019-01-04T09:04:47.998Z,83.83
2019-01-04T09:07:18.340Z,83.70
2019-01-04T09:09:48.660Z,83.69
2019-01-04T09:12:19.086Z,83.56
2019-01-04T09:14:49.414Z,83.50
2019-01-04T09:17:19.924Z,83.38
2019-01-04T09:19:52.145Z,83.24
2019-01-04T09:22:22.571Z,83.15
2019-01-04T09:24:52.919Z,82.98
2019-01-04T09:27:23.199Z,83.01
2019-01-04T09:29:53.584Z,82.87
2019-01-04T09:32:23.904Z,82.71
2019-01-04T09:34:56.074Z,82.69
2019-01-04T09:37:26.455Z,82.46
2019-01-04T09:39:56.844Z,82.47
2019-01-04T09:42:28.601Z,82.42
2019-01-04T09:44:58.901Z,82.31
2019-01-04T09:47:29.236Z,82.37
2019-01-04T09:50:00.395Z,82.22
2019-01-04T09:52:40.797Z,82.20
2019-01-04T09:55:15.902Z,82.11
2019-01-04T09:57:51.460Z,82.10
2019-01-04T10:00:21.781Z,82.02
2019-01-04T10:02:52.212Z,82.01
2019-01-04T10:05:22.642Z,81.96
2019-01-04T10:07:53.059Z,81.91
2019-01-04T10:10:23.381Z,81.82
2019-01-04T10:12:53.670Z,81.70
2019-01-04T10:15:24.095Z,81.61
2019-01-04T10:17:54.498Z,81.48
2019-01-04T10:20:24.908Z,81.36
2019-01-04T10:22:55.250Z,81.45
2019-01-04T10:25:26.041Z,81.41
2019-01-04T10:27:57.854Z,81.24
2019-01-04T10:30:29.066Z,81.28
2019-01-04T10:32:59.407Z,81.20
2019-01-04T10:35:29.880Z,81.15
2019-01-04T10:38:00.309Z,81.16
2019-01-04T10:40:30.841Z,81.17
2019-01-04T10:43:01.087Z,81.15
2019-01-04T10:45:33.598Z,81.10
2019-01-04T10:48:07.000Z,81.04
2019-01-04T10:50:37.535Z,81.01
2019-01-04T10:53:07.847Z,80.96
2019-01-04T10:55:40.646Z,80.97
2019-01-04T10:58:10.978Z,80.95
2019-01-04T11:00:41.322Z,80.92
2019-01-04T11:03:11.674Z,80.94
2019-01-04T11:05:42.597Z,80.87
2019-01-04T11:08:12.981Z,80.88
2019-01-04T11:10:43.644Z,80.89
2019-01-04T11:13:14.313Z,80.85
2019-01-04T11:15:44.784Z,80.82
2019-01-04T11:18:19.383Z,80.81
2019-01-04T11:20:50.261Z,80.87
2019-01-04T11:24:27.108Z,80.83
2019-01-04T11:27:15.359Z,80.75
2019-01-04T11:30:38.404Z,80.61
2019-01-04T11:34:05.713Z,80.56
2019-01-04T11:37:26.948Z,80.35
2019-01-04T11:40:41.862Z,80.34
2019-01-04T11:44:15.426Z,80.28
2019-01-04T11:47:19.981Z,80.22
2019-01-04T11:51:14.408Z,80.23
2019-01-04T11:54:06.821Z,80.18
2019-01-04T11:56:37.158Z,80.21
2019-01-04T11:59:07.583Z,80.06
2019-01-04T12:01:37.932Z,79.77
2019-01-04T12:04:08.351Z,79.64
2019-01-04T12:06:38.715Z,79.54
2019-01-04T12:09:10.660Z,79.46
2019-01-04T12:11:41.012Z,79.29
2019-01-04T12:14:11.302Z,79.04
2019-01-04T12:16:41.665Z,78.95
2019-01-04T12:19:12.060Z,78.82
2019-01-04T12:21:42.381Z,78.77
2019-01-04T12:24:12.733Z,78.58
2019-01-04T12:26:43.112Z,78.36
2019-01-04T12:29:13.460Z,78.27
2019-01-04T12:31:43.775Z,78.21
2019-01-04T12:34:16.722Z,77.93
2019-01-04T12:36:46.227Z,77.96
2019-01-04T12:39:16.693Z,77.78
2019-01-04T12:41:47.202Z,77.68
2019-01-04T12:44:19.310Z,77.71
2019-01-04T12:46:49.615Z,77.66
2019-01-04T12:49:20.109Z,77.73
2019-01-04T12:51:50.820Z,77.60
2019-01-04T12:54:27.056Z,77.62
2019-01-04T12:57:00.068Z,77.68
2019-01-04T12:59:30.379Z,77.79
2019-01-04T13:02:00.715Z,77.87
2019-01-04T13:04:31.077Z,77.84
2019-01-04T13:07:01.456Z,77.85
2019-01-04T13:09:31.857Z,77.86
2019-01-04T13:12:02.111Z,77.85
2019-01-04T13:14:32.435Z,77.79
2019-01-04T13:17:12.814Z,77.75
2019-01-04T13:19:42.338Z,77.65
2019-01-04T13:22:12.784Z,77.67
2019-01-04T13:24:43.214Z,77.58
2019-01-04T13:27:14.049Z,77.56
2019-01-04T13:29:44.475Z,77.61
2019-01-04T13:32:14.847Z,77.67
2019-01-04T13:34:45.181Z,77.85
2019-01-04T13:37:15.642Z,78.13
2019-01-04T13:39:46.003Z,78.51
2019-01-04T13:42:26.881Z,78.86
2019-01-04T13:44:57.731Z,79.19
2019-01-04T13:47:36.223Z,79.44
2019-01-04T13:50:07.400Z,79.53
2019-01-04T13:52:37.762Z,79.59
2019-01-04T13:55:08.198Z,79.72
2019-01-04T13:57:38.552Z,79.72
2019-01-04T14:00:09.871Z,79.83
2019-01-04T14:02:42.588Z,79.80
2019-01-04T14:05:15.165Z,79.80
2019-01-04T14:08:06.185Z,79.71
2019-01-04T14:10:40.154Z,79.65
2019-01-04T14:13:12.885Z,79.63
2019-01-04T14:15:43.321Z,79.61
2019-01-04T14:18:14.794Z,79.55
2019-01-04T14:20:47.217Z,79.50
2019-01-04T14:23:18.843Z,79.49
2019-01-04T14:25:49.244Z,79.47
2019-01-04T14:28:21.033Z,79.49
2019-01-04T14:30:51.432Z,79.51
2019-01-04T14:33:21.848Z,79.53
2019-01-04T14:35:52.198Z,79.61
2019-01-04T14:38:22.483Z,79.82
2019-01-04T14:40:52.823Z,79.99
2019-01-04T14:43:23.090Z,80.07
2019-01-04T14:45:55.666Z,80.14
2019-01-04T14:48:26.670Z,80.12
2019-01-04T14:50:57.248Z,80.06
2019-01-04T14:53:27.581Z,80.03
2019-01-04T14:56:00.926Z,80.05
2019-01-04T14:58:31.424Z,80.05
2019-01-04T15:01:02.275Z,80.07
2019-01-04T15:03:44.100Z,80.05
2019-01-04T15:06:14.550Z,80.07
2019-01-04T15:08:46.982Z,80.14
2019-01-04T15:11:17.255Z,80.20
2019-01-04T15:13:47.530Z,80.28
2019-01-04T15:16:17.863Z,80.32
2019-01-04T15:18:48.166Z,80.41
2019-01-04T15:21:18.457Z,80.49
2019-01-04T15:23:48.819Z,80.54
2019-01-04T15:26:19.065Z,80.57
2019-01-04T15:28:49.408Z,80.60
2019-01-04T15:31:19.755Z,80.63
2019-01-04T15:33:50.133Z,80.70
2019-01-04T15:36:20.533Z,80.79
2019-01-04T15:38:50.851Z,80.80
2019-01-04T15:41:23.094Z,80.83
2019-01-04T15:43:53.624Z,80.94
2019-01-04T15:46:25.007Z,80.98
2019-01-04T15:48:55.520Z,81.00
2019-01-04T15:51:25.932Z,81.05
2019-01-04T15:53:56.452Z,81.08
2019-01-04T15:56:27.053Z,81.10
2019-01-04T15:58:58.704Z,81.08
2019-01-04T16:01:29.133Z,81.21
2019-01-04T16:03:59.709Z,81.27
2019-01-04T16:06:30.249Z,81.42
2019-01-04T16:09:00.671Z,81.44
2019-01-04T16:11:36.706Z,81.50
2019-01-04T16:14:12.973Z,81.55
2019-01-04T16:19:43.020Z,81.75
2019-01-04T16:22:14.152Z,81.86
2019-01-04T16:24:47.318Z,81.89
2019-01-04T16:27:17.902Z,81.86
2019-01-04T16:29:48.740Z,81.92
2019-01-04T16:32:19.352Z,81.97
2019-01-04T16:34:51.656Z,82.03
2019-01-04T16:37:22.014Z,82.11
2019-01-04T16:39:54.620Z,82.26
2019-01-04T16:42:25.004Z,82.45
2019-01-04T16:44:55.279Z,82.61
2019-01-04T16:47:25.950Z,82.73
2019-01-04T16:49:56.267Z,82.81
2019-01-04T16:52:26.701Z,82.85
2019-01-04T16:54:57.860Z,82.94
2019-01-04T16:57:28.207Z,83.00
2019-01-04T16:59:58.510Z,83.04
2019-01-04T17:02:29.018Z,83.15
2019-01-04T17:04:59.334Z,83.11
2019-01-04T17:07:29.726Z,83.20
2019-01-04T17:10:00.311Z,83.22
2019-01-04T17:12:31.469Z,83.25
2019-01-04T17:15:02.923Z,83.30
2019-01-04T17:17:34.016Z,83.41
2019-01-04T17:20:06.458Z,83.43
2019-01-04T17:22:37.717Z,83.48
2019-01-04T17:25:10.567Z,83.49
2019-01-04T17:27:41.219Z,83.58
2019-01-04T17:30:13.858Z,83.65
2019-01-04T17:32:44.960Z,83.74
2019-01-04T17:35:17.818Z,83.77
2019-01-04T17:40:30.217Z,83.95
2019-01-04T17:43:59.755Z,83.92
2019-01-04T17:49:58.390Z,83.94
2019-01-04T17:52:46.853Z,84.10
2019-01-04T17:55:22.264Z,84.14
2019-01-04T17:58:06.079Z,84.17
2019-01-04T18:00:43.018Z,84.15
2019-01-04T18:03:13.548Z,84.12
2019-01-04T18:05:56.075Z,84.25
2019-01-04T18:08:42.060Z,84.34
2019-01-04T18:11:15.184Z,84.31
2019-01-04T18:13:45.567Z,84.35
2019-01-04T18:16:15.797Z,84.35
2019-01-04T18:19:10.501Z,84.31
2019-01-04T18:21:51.003Z,84.26
2019-01-04T18:24:25.068Z,84.21
2019-01-04T18:27:32.013Z,84.14
2019-01-04T18:30:11.998Z,84.09
2019-01-04T18:32:42.764Z,84.01
2019-01-04T18:35:20.886Z,83.94
2019-01-04T18:37:51.162Z,83.87
2019-01-04T18:40:24.383Z,83.76
2019-01-04T18:42:55.431Z,83.63
2019-01-04T18:45:38.263Z,83.55
2019-01-04T18:48:19.550Z,83.46
2019-01-04T18:50:55.687Z,83.39
2019-01-04T18:53:37.420Z,83.33
2019-01-04T18:56:21.350Z,83.26
2019-01-04T18:59:06.293Z,83.24
2019-01-04T19:01:36.550Z,83.19
2019-01-04T19:04:06.822Z,83.09
2019-01-04T19:06:37.060Z,83.04
2019-01-04T19:09:20.986Z,83.02
2019-01-04T19:12:05.749Z,82.97
2019-01-04T19:14:39.567Z,82.92
2019-01-04T19:17:13.117Z,82.86
2019-01-04T19:19:43.346Z,82.75
2019-01-04T19:25:21.220Z,82.91
2019-01-04T19:27:51.447Z,82.95
2019-01-04T19:30:21.674Z,82.93
2019-01-04T19:32:59.901Z,82.88
2019-01-04T19:35:46.687Z,82.81
2019-01-04T19:38:17.074Z,82.79
2019-01-04T19:40:47.185Z,82.72
2019-01-04T19:43:17.791Z,82.67
2019-01-04T19:45:48.256Z,82.61
2019-01-04T19:48:18.612Z,82.58
2019-01-04T19:51:02.539Z,82.50
2019-01-04T19:53:32.995Z,82.41
2019-01-04T19:56:03.622Z,82.37
2019-01-04T19:58:34.351Z,82.35
2019-01-04T20:01:04.775Z,82.42
2019-01-04T20:03:35.390Z,82.54
2019-01-04T20:07:19.675Z,82.63
2019-01-04T20:11:29.341Z,82.64
2019-01-04T20:15:24.963Z,82.66
2019-01-04T20:18:25.346Z,82.64
2019-01-04T20:21:29.559Z,82.56
2019-01-04T20:24:20.367Z,82.45
2019-01-04T20:27:27.256Z,82.41
2019-01-04T20:33:03.214Z,82.44
2019-01-04T20:35:50.961Z,82.46
2019-01-04T20:38:41.648Z,82.53
2019-01-04T20:41:29.549Z,82.54
2019-01-04T20:44:40.083Z,82.54
2019-01-04T20:47:20.686Z,82.51
2019-01-04T20:50:03.336Z,82.47
2019-01-04T20:52:52.356Z,82.44
2019-01-04T20:55:41.909Z,82.39
2019-01-04T20:58:30.081Z,82.34
2019-01-04T21:01:20.618Z,82.32
2019-01-04T21:04:16.655Z,82.34
2019-01-04T21:07:17.777Z,82.33
2019-01-04T21:10:13.000Z,82.35
2019-01-04T21:13:07.850Z,82.34
2019-01-04T21:15:56.063Z,82.34
2019-01-04T21:18:59.835Z,82.31
2019-01-04T21:22:00.136Z,82.32
2019-01-04T21:24:49.469Z,82.35
2019-01-04T21:27:35.791Z,82.37
2019-01-04T21:30:33.315Z,82.35
2019-01-04T21:33:31.676Z,82.29
2019-01-04T21:36:35.707Z,82.32
2019-01-04T21:39:39.383Z,82.34
2019-01-04T21:42:18.018Z,82.44
2019-01-04T21:45:19.316Z,82.46
2019-01-04T21:48:15.724Z,82.45
2019-01-04T21:51:05.026Z,82.45
2019-01-04T21:53:57.787Z,82.48
2019-01-04T21:56:45.762Z,82.51
2019-01-04T21:59:46.257Z,82.63
2019-01-04T22:02:45.555Z,82.76
2019-01-04T22:05:49.901Z,82.84
2019-01-04T22:08:48.538Z,82.90
2019-01-04T22:11:41.306Z,82.87
2019-01-04T22:14:33.238Z,83.00
2019-01-04T22:17:26.174Z,83.19
2019-01-04T22:20:13.107Z,83.31
2019-01-04T22:23:01.206Z,83.45
2019-01-04T22:26:05.424Z,83.74
2019-01-04T22:28:54.870Z,83.80
2019-01-04T22:31:43.626Z,83.82
2019-01-04T22:34:37.135Z,83.86
2019-01-04T22:37:37.788Z,83.96
2019-01-04T22:40:28.766Z,84.08
2019-01-04T22:43:25.300Z,84.31
2019-01-04T22:46:13.531Z,84.32
2019-01-04T22:48:55.820Z,84.44
2019-01-04T22:51:47.026Z,84.62
2019-01-04T22:55:05.832Z,84.68
2019-01-04T22:58:09.405Z,84.71
2019-01-04T23:01:16.283Z,84.86
2019-01-04T23:04:11.210Z,84.94
2019-01-04T23:07:00.330Z,85.04
2019-01-04T23:09:54.347Z,85.04
2019-01-04T23:12:41.128Z,85.22
2019-01-04T23:16:14.467Z,85.29
2019-01-04T23:18:44.068Z,85.38
2019-01-04T23:22:18.925Z,85.61
2019-01-04T23:25:09.506Z,85.66
2019-01-04T23:28:31.200Z,85.75
2019-01-04T23:31:29.585Z,85.72
2019-01-04T23:34:30.892Z,85.77
2019-01-04T23:37:22.804Z,85.99
2019-01-04T23:40:17.817Z,86.11
2019-01-04T23:43:18.074Z,86.19
2019-01-04T23:46:06.056Z,86.15
2019-01-04T23:49:14.069Z,86.21
2019-01-04T23:52:05.272Z,86.39
2019-01-04T23:54:51.174Z,86.42
2019-01-04T23:57:50.399Z,86.37
